Terminal Aerodrome Forecast
Issued by NWS Tulsa, OK

Home | Current Version | Previous Version | Text Only | Print | Product List | Glossary On
Versions: 1 2 3 4 5 6 7 8 9 10 11 12 13
760
FTUS44 KTSA 271121
TAFFSM
TAF
KFSM 271121Z 2712/2812 VRB04KT P6SM SKC
     FM271700 15008KT P6SM BKN150
     FM280400 08007KT P6SM BKN120=

USA.gov is the U.S. government's official web portal to all federal, state and local government web resources and services.